createdAt,value
2019-03-29T00:01:18.438Z,71.50
2019-03-29T00:06:27.537Z,76.33
2019-03-29T00:11:36.741Z,72.64
2019-03-29T00:16:45.857Z,75.90
2019-03-29T00:21:55.018Z,72.47
2019-03-29T00:27:04.116Z,72.39
2019-03-29T00:32:13.302Z,74.11
2019-03-29T00:38:15.131Z,28.37
2019-03-29T00:43:24.455Z,70.94
2019-03-29T00:48:35.629Z,26.85
2019-03-29T00:53:42.375Z,33.25
2019-03-29T00:58:51.471Z,71.10
2019-03-29T01:04:00.822Z,40.70
2019-03-29T01:09:09.937Z,68.54
2019-03-29T01:14:19.113Z,61.88
2019-03-29T01:19:28.266Z,71.05
2019-03-29T01:24:37.440Z,71.22
2019-03-29T01:29:46.678Z,31.21
2019-03-29T01:34:55.894Z,33.33
2019-03-29T01:40:05.006Z,64.28
2019-03-29T01:45:14.474Z,71.70
2019-03-29T01:50:23.605Z,71.78
2019-03-29T01:55:32.765Z,73.12
2019-03-29T02:00:41.916Z,73.21
2019-03-29T02:05:51.226Z,72.99
2019-03-29T02:11:00.353Z,30.71
2019-03-29T02:16:09.603Z,64.98
2019-03-29T02:21:18.742Z,33.98
2019-03-29T02:26:27.933Z,52.87
2019-03-29T02:31:37.051Z,65.39
2019-03-29T02:36:46.322Z,68.23
2019-03-29T02:41:55.441Z,31.81
2019-03-29T02:47:04.599Z,65.64
2019-03-29T02:52:13.692Z,66.69
2019-03-29T02:57:22.942Z,69.66
2019-03-29T03:02:32.043Z,28.65
2019-03-29T03:07:41.245Z,63.78
2019-03-29T03:12:50.317Z,71.71
2019-03-29T03:17:59.567Z,70.70
2019-03-29T03:23:08.637Z,73.35
2019-03-29T03:28:20.054Z,27.57
2019-03-29T03:33:19.151Z,29.70
2019-03-29T03:38:28.370Z,63.03
2019-03-29T03:43:37.488Z,69.81
2019-03-29T03:48:46.833Z,70.81
2019-03-29T03:53:55.918Z,27.96
2019-03-29T03:59:05.178Z,64.83
2019-03-29T04:04:14.281Z,69.26
2019-03-29T04:09:23.453Z,26.87
2019-03-29T04:14:32.605Z,64.29
2019-03-29T04:19:41.811Z,68.39
2019-03-29T04:24:50.911Z,68.39
2019-03-29T04:30:00.442Z,68.10
2019-03-29T04:35:08.745Z,70.18
2019-03-29T04:40:17.926Z,25.83
2019-03-29T04:45:27.062Z,61.14
2019-03-29T04:50:36.262Z,69.00
2019-03-29T04:55:45.386Z,68.87
2019-03-29T05:00:54.736Z,70.39
2019-03-29T05:06:03.849Z,66.94
2019-03-29T05:11:13.053Z,72.08
2019-03-29T05:16:22.155Z,69.47
2019-03-29T05:21:31.488Z,69.68
2019-03-29T05:26:40.603Z,24.63
2019-03-29T05:31:49.826Z,61.26
2019-03-29T05:36:58.953Z,67.24
2019-03-29T05:42:08.137Z,68.66
2019-03-29T05:47:17.261Z,68.31
2019-03-29T05:52:26.422Z,69.11
2019-03-29T05:57:35.552Z,68.22
2019-03-29T06:02:44.840Z,68.04
2019-03-29T06:07:53.984Z,26.57
2019-03-29T06:13:03.238Z,60.20
2019-03-29T06:18:12.370Z,66.19
2019-03-29T06:23:21.605Z,69.30
2019-03-29T06:28:30.918Z,68.83
2019-03-29T06:33:40.356Z,27.37
2019-03-29T06:38:49.485Z,61.01
2019-03-29T06:43:58.802Z,67.22
2019-03-29T06:49:07.978Z,26.37
2019-03-29T06:54:17.240Z,29.76
2019-03-29T06:59:26.519Z,31.57
2019-03-29T07:04:36.588Z,32.38
2019-03-29T07:09:35.718Z,58.90
2019-03-29T07:14:44.960Z,66.06
2019-03-29T07:19:54.148Z,30.17
2019-03-29T07:25:03.409Z,57.37
2019-03-29T07:30:12.560Z,67.51
2019-03-29T07:35:21.759Z,69.70
2019-03-29T07:40:30.917Z,32.12
2019-03-29T07:45:40.296Z,72.45
2019-03-29T07:50:49.461Z,67.67
2019-03-29T07:55:58.697Z,66.81
2019-03-29T08:01:08.472Z,66.32
2019-03-29T08:06:18.842Z,66.09
2019-03-29T08:11:25.985Z,72.64
2019-03-29T08:16:26.630Z,72.88
2019-03-29T08:21:35.807Z,66.81
2019-03-29T08:26:45.011Z,35.16
2019-03-29T08:31:55.644Z,72.07
2019-03-29T08:37:02.943Z,66.47
2019-03-29T08:42:12.549Z,38.80
2019-03-29T08:47:21.747Z,66.02
2019-03-29T08:52:30.906Z,42.70
2019-03-29T08:57:40.358Z,45.67
2019-03-29T09:02:49.497Z,79.41
2019-03-29T09:07:58.786Z,44.30
2019-03-29T09:13:07.921Z,78.40
2019-03-29T09:18:17.171Z,84.67
2019-03-29T09:23:26.312Z,74.14
2019-03-29T09:28:35.516Z,84.96
2019-03-29T09:33:44.704Z,69.49
2019-03-29T09:38:54.088Z,96.42
2019-03-29T09:44:03.271Z,44.43
2019-03-29T09:49:12.437Z,78.60
2019-03-29T09:54:21.578Z,77.90
2019-03-29T09:59:30.819Z,47.41
2019-03-29T10:04:40.008Z,97.06
2019-03-29T10:09:50.339Z,82.59
2019-03-29T10:14:52.298Z,81.97
2019-03-29T10:19:51.739Z,71.27
2019-03-29T10:25:02.545Z,79.62
2019-03-29T10:30:09.844Z,73.02
2019-03-29T10:35:19.061Z,52.45
2019-03-29T10:40:28.301Z,93.24
2019-03-29T10:45:40.327Z,74.79
2019-03-29T10:50:46.192Z,72.75
2019-03-29T10:55:55.371Z,58.35
2019-03-29T11:01:04.600Z,75.94
2019-03-29T11:06:13.756Z,92.56
2019-03-29T11:11:23.194Z,89.00
2019-03-29T11:16:32.441Z,85.95
2019-03-29T11:21:41.638Z,74.40
2019-03-29T11:26:50.819Z,70.81
2019-03-29T11:32:00.091Z,99.72
2019-03-29T11:37:09.198Z,73.99
2019-03-29T11:42:18.787Z,67.46
2019-03-29T11:47:27.948Z,74.35
2019-03-29T11:52:37.291Z,73.09
2019-03-29T11:57:46.420Z,72.41
2019-03-29T12:02:55.741Z,81.19
2019-03-29T12:08:05.026Z,74.91
2019-03-29T12:13:14.284Z,78.49
2019-03-29T12:18:23.471Z,78.22
2019-03-29T12:23:32.694Z,81.44
2019-03-29T12:28:41.833Z,72.96
2019-03-29T12:33:51.274Z,72.14
2019-03-29T12:39:00.436Z,70.21
2019-03-29T12:44:09.741Z,72.51
2019-03-29T12:49:18.929Z,97.69
2019-03-29T12:54:26.981Z,72.46
2019-03-29T12:59:36.109Z,70.33
2019-03-29T13:04:47.033Z,71.82
2019-03-29T13:09:54.174Z,67.44
2019-03-29T13:15:04.435Z,96.58
2019-03-29T13:20:03.538Z,78.68
2019-03-29T13:25:12.695Z,70.19
2019-03-29T13:30:21.826Z,73.70
2019-03-29T13:35:30.333Z,82.50
2019-03-29T13:40:40.603Z,72.81
2019-03-29T13:45:40.443Z,83.79
2019-03-29T13:50:49.685Z,78.92
2019-03-29T13:55:59.078Z,73.71
2019-03-29T14:01:08.243Z,69.60
2019-03-29T14:06:17.486Z,79.19
2019-03-29T14:11:26.714Z,84.84
2019-03-29T14:16:36.090Z,74.99
2019-03-29T14:21:45.232Z,70.16
2019-03-29T14:26:54.661Z,67.86
2019-03-29T14:32:05.855Z,160.06
2019-03-29T14:37:05.052Z,76.38
2019-03-29T14:42:14.453Z,87.98
2019-03-29T14:47:38.507Z,73.43
2019-03-29T14:52:33.129Z,79.89
2019-03-29T14:57:45.542Z,89.69
2019-03-29T15:02:44.659Z,90.10
2019-03-29T15:07:53.894Z,105.49
2019-03-29T15:13:03.105Z,1993.11
2019-03-29T15:18:13.341Z,1993.01
2019-03-29T15:23:12.427Z,1994.06
2019-03-29T15:28:20.218Z,1994.32
2019-03-29T15:33:29.368Z,1336.04
2019-03-29T15:38:38.670Z,88.57
2019-03-29T15:43:47.790Z,80.63
2019-03-29T15:48:57.177Z,58.48
2019-03-29T15:54:06.740Z,79.60
2019-03-29T15:59:16.067Z,86.20
2019-03-29T16:04:25.240Z,77.87
2019-03-29T16:09:34.646Z,88.86
2019-03-29T16:14:44.022Z,59.07
2019-03-29T16:19:53.291Z,63.28
2019-03-29T16:25:02.491Z,78.39
2019-03-29T16:30:11.770Z,82.93
2019-03-29T16:35:21.041Z,79.60
2019-03-29T16:40:31.136Z,79.00
2019-03-29T16:45:47.782Z,75.03
2019-03-29T16:50:47.604Z,75.99
2019-03-29T16:55:56.831Z,54.94
2019-03-29T17:01:07.270Z,76.23
2019-03-29T17:06:06.370Z,79.74
2019-03-29T17:11:15.561Z,55.20
2019-03-29T17:16:30.661Z,78.13
2019-03-29T17:21:33.455Z,71.38
2019-03-29T17:26:42.632Z,80.34
2019-03-29T17:31:51.863Z,54.69
2019-03-29T17:37:01.070Z,77.17
2019-03-29T17:42:10.346Z,57.87
2019-03-29T17:47:20.578Z,78.74
2019-03-29T17:52:19.712Z,54.29
2019-03-29T17:57:27.570Z,77.22
2019-03-29T18:02:36.855Z,77.47
2019-03-29T18:07:45.977Z,84.94
2019-03-29T18:12:55.299Z,82.60
2019-03-29T18:18:04.619Z,80.24
2019-03-29T18:23:14.004Z,79.37
2019-03-29T18:28:23.150Z,48.99
2019-03-29T18:33:34.926Z,77.82
2019-03-29T18:38:34.124Z,49.34
2019-03-29T18:43:43.363Z,84.60
2019-03-29T18:48:52.506Z,81.01
2019-03-29T18:54:01.803Z,88.80
2019-03-29T18:59:11.696Z,82.60
2019-03-29T19:04:20.127Z,46.60
2019-03-29T19:09:31.638Z,85.27
2019-03-29T19:14:41.442Z,81.56
2019-03-29T19:19:46.892Z,87.19
2019-03-29T19:24:56.212Z,81.70
2019-03-29T19:30:05.418Z,82.92
2019-03-29T19:35:14.821Z,49.93
2019-03-29T19:40:24.487Z,86.92
2019-03-29T19:45:34.336Z,83.48
2019-03-29T19:50:41.486Z,88.13
2019-03-29T19:55:50.927Z,82.71
2019-03-29T20:01:00.143Z,79.61
2019-03-29T20:06:09.294Z,84.10
2019-03-29T20:11:19.761Z,84.23
2019-03-29T20:16:19.116Z,98.92
2019-03-29T20:21:28.261Z,81.31
2019-03-29T20:26:37.498Z,79.60
2019-03-29T20:31:45.170Z,77.65
2019-03-29T20:36:54.489Z,56.92
2019-03-29T20:42:03.752Z,82.58
2019-03-29T20:47:13.053Z,81.47
2019-03-29T20:52:22.212Z,87.28
2019-03-29T20:57:31.466Z,82.97
2019-03-29T21:02:40.607Z,87.26
2019-03-29T21:07:49.850Z,92.61
2019-03-29T21:12:59.029Z,93.94
2019-03-29T21:18:08.362Z,93.60
2019-03-29T21:23:17.522Z,94.82
2019-03-29T21:28:26.921Z,92.04
2019-03-29T21:33:40.708Z,50.56
2019-03-29T21:38:37.073Z,83.24
2019-03-29T21:43:46.178Z,89.57
2019-03-29T21:48:55.398Z,98.33
2019-03-29T21:54:04.517Z,82.42
2019-03-29T21:59:13.783Z,91.97
2019-03-29T22:04:22.881Z,90.76
2019-03-29T22:09:37.122Z,92.06
2019-03-29T22:14:40.748Z,96.17
2019-03-29T22:19:49.999Z,93.69
2019-03-29T22:24:59.215Z,52.70
2019-03-29T22:30:08.443Z,83.16
2019-03-29T22:35:17.572Z,89.92
2019-03-29T22:40:25.572Z,83.10
2019-03-29T22:45:34.711Z,96.51
2019-03-29T22:50:42.542Z,83.93
2019-03-29T22:55:51.689Z,94.05
2019-03-29T23:01:00.886Z,54.35
2019-03-29T23:06:10.536Z,84.90
2019-03-29T23:11:18.857Z,93.64
2019-03-29T23:16:30.397Z,83.12
2019-03-29T23:21:36.715Z,87.22
2019-03-29T23:26:45.911Z,57.34
2019-03-29T23:31:55.078Z,59.26
2019-03-29T23:37:04.201Z,87.28
2019-03-29T23:42:13.526Z,86.16
2019-03-29T23:47:22.658Z,56.55
2019-03-29T23:52:31.993Z,78.79
2019-03-29T23:57:41.165Z,56.79
